createdAt,value
2023-04-27T00:01:00.758Z,100433.37
2023-04-27T00:03:28.269Z,100429.51
2023-04-27T00:05:55.155Z,100428.09
2023-04-27T00:08:21.853Z,100423.73
2023-04-27T00:10:48.346Z,100416.75
2023-04-27T00:13:14.813Z,100418.65
2023-04-27T00:15:41.324Z,100427.14
2023-04-27T00:18:07.875Z,100424.70
2023-04-27T00:20:34.395Z,100432.45
2023-04-27T00:23:00.882Z,100435.09
2023-04-27T00:25:27.422Z,100429.92
2023-04-27T00:27:53.930Z,100432.76
2023-04-27T00:30:20.398Z,100427.18
2023-04-27T00:32:46.963Z,100431.20
2023-04-27T00:35:13.429Z,100429.66
2023-04-27T00:37:39.920Z,100426.39
2023-04-27T00:40:07.217Z,100426.05
2023-04-27T00:42:34.893Z,100427.46
2023-04-27T00:45:01.590Z,100427.64
2023-04-27T00:47:30.016Z,100425.38
2023-04-27T00:49:56.798Z,100425.55
2023-04-27T00:52:23.300Z,100423.39
2023-04-27T00:54:51.734Z,100426.55
2023-04-27T00:57:18.379Z,100426.15
2023-04-27T00:59:44.885Z,100429.98
2023-04-27T01:02:11.817Z,100426.67
2023-04-27T01:04:38.402Z,100423.02
2023-04-27T01:07:04.914Z,100427.52
2023-04-27T01:09:31.426Z,100425.05
2023-04-27T01:11:58.186Z,100429.02
2023-04-27T01:14:24.654Z,100431.96
2023-04-27T01:16:52.216Z,100437.33
2023-04-27T01:19:18.744Z,100432.77
2023-04-27T01:21:45.235Z,100428.75
2023-04-27T01:24:11.719Z,100428.54
2023-04-27T01:26:38.203Z,100440.85
2023-04-27T01:29:04.678Z,100441.71
2023-04-27T01:31:31.220Z,100443.95
2023-04-27T01:33:57.727Z,100441.31
2023-04-27T01:36:24.217Z,100444.05
2023-04-27T01:38:50.721Z,100443.14
2023-04-27T01:41:17.172Z,100446.54
2023-04-27T01:43:43.719Z,100448.23
2023-04-27T01:46:12.895Z,100443.30
2023-04-27T01:48:40.712Z,100446.55
2023-04-27T01:51:07.547Z,100448.41
2023-04-27T01:53:34.248Z,100450.96
2023-04-27T01:56:00.873Z,100445.88
2023-04-27T01:58:27.537Z,100452.46
2023-04-27T02:00:54.097Z,100451.34
2023-04-27T02:03:20.711Z,100454.98
2023-04-27T02:05:47.440Z,100453.92
2023-04-27T02:08:14.626Z,100457.88
2023-04-27T02:10:41.513Z,100458.02
2023-04-27T02:13:08.020Z,100458.83
2023-04-27T02:15:34.468Z,100459.66
2023-04-27T02:18:01.339Z,100463.60
2023-04-27T02:20:30.108Z,100464.80
2023-04-27T02:22:56.739Z,100464.60
2023-04-27T02:25:23.280Z,100460.89
2023-04-27T02:27:49.792Z,100467.31
2023-04-27T02:30:16.849Z,100472.44
2023-04-27T02:32:43.896Z,100472.33
2023-04-27T02:35:10.618Z,100477.58
2023-04-27T02:37:37.072Z,100472.77
2023-04-27T02:40:04.220Z,100472.38
2023-04-27T02:42:30.657Z,100475.27
2023-04-27T02:44:57.149Z,100473.67
2023-04-27T02:47:23.672Z,100473.29
2023-04-27T02:49:50.166Z,100477.92
2023-04-27T02:52:16.763Z,100476.65
2023-04-27T02:54:43.256Z,100481.76
2023-04-27T02:57:09.748Z,100484.58
2023-04-27T02:59:36.225Z,100487.95
2023-04-27T03:02:02.702Z,100492.50
2023-04-27T03:04:29.216Z,100492.29
2023-04-27T03:06:55.731Z,100493.10
2023-04-27T03:09:22.198Z,100497.20
2023-04-27T03:11:48.668Z,100499.00
2023-04-27T03:14:15.148Z,100501.01
2023-04-27T03:16:41.712Z,100503.05
2023-04-27T03:19:08.214Z,100502.15
2023-04-27T03:21:34.667Z,100504.55
2023-04-27T03:24:01.173Z,100507.95
2023-04-27T03:26:27.770Z,100503.76
2023-04-27T03:28:54.234Z,100504.21
2023-04-27T03:31:20.801Z,100511.79
2023-04-27T03:33:47.335Z,100514.02
2023-04-27T03:36:13.982Z,100515.52
2023-04-27T03:38:40.506Z,100519.48
2023-04-27T03:41:07.052Z,100517.34
2023-04-27T03:43:33.567Z,100523.36
2023-04-27T03:46:00.115Z,100523.15
2023-04-27T03:48:26.681Z,100527.81
2023-04-27T03:50:53.148Z,100528.84
2023-04-27T03:53:19.613Z,100529.36
2023-04-27T03:55:46.106Z,100532.91
2023-04-27T03:58:12.724Z,100532.77
2023-04-27T04:00:39.962Z,100536.10
2023-04-27T04:03:07.292Z,100537.50
2023-04-27T04:05:34.217Z,100536.27
2023-04-27T04:08:00.743Z,100536.11
2023-04-27T04:10:27.208Z,100542.73
2023-04-27T04:12:53.659Z,100542.73
2023-04-27T04:15:20.240Z,100541.50
2023-04-27T04:17:46.762Z,100551.20
2023-04-27T04:20:13.705Z,100552.84
2023-04-27T04:22:40.227Z,100560.42
2023-04-27T04:25:07.226Z,100560.92
2023-04-27T04:27:33.753Z,100564.15
2023-04-27T04:30:00.590Z,100560.98
2023-04-27T04:32:27.462Z,100568.59
2023-04-27T04:34:53.933Z,100570.41
2023-04-27T04:37:20.395Z,100573.27
2023-04-27T04:39:46.865Z,100575.82
2023-04-27T04:42:13.432Z,100574.89
2023-04-27T04:44:39.895Z,100577.09
2023-04-27T04:47:06.363Z,100580.54
2023-04-27T04:49:32.832Z,100581.36
2023-04-27T04:51:59.389Z,100581.81
2023-04-27T04:54:25.832Z,100580.88
2023-04-27T04:56:52.281Z,100584.46
2023-04-27T04:59:18.777Z,100585.31
2023-04-27T05:01:45.248Z,100580.41
2023-04-27T05:04:11.944Z,100582.66
2023-04-27T05:06:38.613Z,100589.64
2023-04-27T05:09:05.096Z,100589.31
2023-04-27T05:11:31.688Z,100594.73
2023-04-27T05:13:58.138Z,100595.45
2023-04-27T05:16:24.674Z,100598.83
2023-04-27T05:18:51.181Z,100597.13
2023-04-27T05:21:17.828Z,100597.55
2023-04-27T05:23:44.329Z,100601.78
2023-04-27T05:26:15.387Z,100602.20
2023-04-27T05:28:42.605Z,100608.91
2023-04-27T05:31:09.305Z,100612.94
2023-04-27T05:33:35.798Z,100613.27
2023-04-27T05:36:02.433Z,100616.58
2023-04-27T05:38:28.891Z,100615.48
2023-04-27T05:40:58.452Z,100614.66
2023-04-27T05:43:25.591Z,100616.89
2023-04-27T05:45:52.891Z,100615.95
2023-04-27T05:48:20.028Z,100617.67
2023-04-27T05:50:46.630Z,100618.73
2023-04-27T05:53:13.110Z,100621.30
2023-04-27T05:55:39.599Z,100621.08
2023-04-27T05:58:08.647Z,100618.10
2023-04-27T06:00:35.946Z,100617.92
2023-04-27T06:03:02.589Z,100618.46
2023-04-27T06:05:29.317Z,100624.40
2023-04-27T06:07:55.893Z,100625.27
2023-04-27T06:10:22.478Z,100627.69
2023-04-27T06:12:48.975Z,100625.27
2023-04-27T06:15:15.504Z,100625.98
2023-04-27T06:17:42.074Z,100622.30
2023-04-27T06:20:08.796Z,100625.84
2023-04-27T06:22:38.859Z,100623.61
2023-04-27T06:25:06.256Z,100624.19
2023-04-27T06:27:33.598Z,100630.52
2023-04-27T06:30:00.066Z,100631.29
2023-04-27T06:32:26.633Z,100635.57
2023-04-27T06:34:53.116Z,100633.02
2023-04-27T06:37:19.647Z,100631.12
2023-04-27T06:39:46.846Z,100629.86
2023-04-27T06:42:13.523Z,100634.73
2023-04-27T06:44:40.064Z,100634.34
2023-04-27T06:47:06.597Z,100632.70
2023-04-27T06:49:33.087Z,100639.63
2023-04-27T06:52:02.100Z,100640.08
2023-04-27T06:54:28.652Z,100639.09
2023-04-27T06:56:55.145Z,100636.67
2023-04-27T06:59:21.698Z,100639.14
2023-04-27T07:01:48.246Z,100640.55
2023-04-27T07:04:15.016Z,100634.23
2023-04-27T07:06:41.587Z,100637.40
2023-04-27T07:09:13.493Z,100640.20
2023-04-27T07:11:52.881Z,100638.27
2023-04-27T07:14:19.392Z,100640.71
2023-04-27T07:16:45.852Z,100635.46
2023-04-27T07:19:12.679Z,100638.79
2023-04-27T07:21:39.472Z,100637.41
2023-04-27T07:24:06.296Z,100634.96
2023-04-27T07:26:32.737Z,100636.91
2023-04-27T07:28:59.260Z,100637.09
2023-04-27T07:31:25.794Z,100641.30
2023-04-27T07:33:52.242Z,100643.59
2023-04-27T07:36:18.816Z,100644.48
2023-04-27T07:38:45.369Z,100645.36
2023-04-27T07:41:11.857Z,100647.81
2023-04-27T07:43:38.342Z,100646.41
2023-04-27T07:46:04.999Z,100648.53
2023-04-27T07:48:31.489Z,100643.79
2023-04-27T07:50:58.116Z,100644.85
2023-04-27T07:53:24.650Z,100643.81
2023-04-27T07:55:51.108Z,100635.73
2023-04-27T07:58:18.109Z,100637.83
2023-04-27T08:00:44.639Z,100640.09
2023-04-27T08:03:11.303Z,100643.02
2023-04-27T08:05:38.359Z,100638.92
2023-04-27T08:08:05.662Z,100639.90
2023-04-27T08:10:32.287Z,100639.26
2023-04-27T08:12:58.766Z,100639.65
2023-04-27T08:15:25.379Z,100643.10
2023-04-27T08:17:51.820Z,100644.98
2023-04-27T08:20:18.394Z,100643.16
2023-04-27T08:22:44.892Z,100644.02
2023-04-27T08:25:11.374Z,100647.99
2023-04-27T08:27:39.062Z,100644.94
2023-04-27T08:30:06.287Z,100646.32
2023-04-27T08:32:32.828Z,100644.32
2023-04-27T08:34:59.502Z,100644.05
2023-04-27T08:37:26.036Z,100645.17
2023-04-27T08:39:52.516Z,100642.50
2023-04-27T08:42:18.987Z,100647.56
2023-04-27T08:44:45.476Z,100646.20
2023-04-27T08:47:12.039Z,100646.92
2023-04-27T08:49:38.915Z,100646.59
2023-04-27T08:52:11.654Z,100646.20
2023-04-27T08:54:38.172Z,100645.55
2023-04-27T08:57:15.384Z,100645.77
2023-04-27T08:59:42.547Z,100640.61
2023-04-27T09:02:19.740Z,100634.94
2023-04-27T09:04:46.465Z,100633.38
2023-04-27T09:07:17.689Z,100628.80
2023-04-27T09:09:45.211Z,100624.67
2023-04-27T09:12:19.326Z,100623.60
2023-04-27T09:15:06.489Z,100622.87
2023-04-27T09:17:33.065Z,100621.44
2023-04-27T09:20:07.345Z,100622.55
2023-04-27T09:22:42.775Z,100614.95
2023-04-27T09:25:09.386Z,100612.52
2023-04-27T09:27:38.641Z,100612.34
2023-04-27T09:30:15.025Z,100613.33
2023-04-27T09:32:59.756Z,100609.38
2023-04-27T09:35:28.792Z,100609.07
2023-04-27T09:37:56.040Z,100605.60
2023-04-27T09:40:25.391Z,100599.30
2023-04-27T09:42:52.172Z,100596.33
2023-04-27T09:45:19.080Z,100599.89
2023-04-27T09:47:46.134Z,100601.42
2023-04-27T09:50:14.059Z,100597.50
2023-04-27T09:52:40.877Z,100596.38
2023-04-27T09:55:13.666Z,100600.41
2023-04-27T09:58:00.401Z,100595.27
2023-04-27T10:00:48.518Z,100586.73
2023-04-27T10:03:33.246Z,100584.52
2023-04-27T10:06:27.482Z,100584.23
2023-04-27T10:08:55.840Z,100585.20
2023-04-27T10:11:37.863Z,100578.13
2023-04-27T10:14:07.330Z,100575.09
2023-04-27T10:16:47.388Z,100575.80
2023-04-27T10:19:14.309Z,100566.87
2023-04-27T10:22:01.227Z,100570.80
2023-04-27T10:24:41.599Z,100567.91
2023-04-27T10:27:15.973Z,100570.64
2023-04-27T10:29:44.172Z,100572.36
2023-04-27T10:32:13.381Z,100571.85
2023-04-27T10:34:40.566Z,100573.66
2023-04-27T10:37:11.138Z,100571.00
2023-04-27T10:39:47.676Z,100559.62
2023-04-27T10:42:26.795Z,100554.52
2023-04-27T10:44:57.125Z,100552.61
2023-04-27T10:47:23.707Z,100557.48
2023-04-27T10:49:53.897Z,100555.06
2023-04-27T10:52:20.488Z,100556.25
2023-04-27T10:54:47.075Z,100559.29
2023-04-27T10:57:14.384Z,100556.25
2023-04-27T10:59:51.927Z,100561.52
2023-04-27T11:02:25.976Z,100561.79
2023-04-27T11:04:52.607Z,100558.20
2023-04-27T11:07:26.722Z,100562.90
2023-04-27T11:09:53.633Z,100562.83
2023-04-27T11:12:20.208Z,100567.61
2023-04-27T11:14:46.734Z,100566.05
2023-04-27T11:17:13.423Z,100563.51
2023-04-27T11:19:47.496Z,100558.60
2023-04-27T11:22:15.439Z,100559.88
2023-04-27T11:24:52.529Z,100562.51
2023-04-27T11:27:19.792Z,100560.04
2023-04-27T11:29:46.314Z,100558.44
2023-04-27T11:32:19.743Z,100556.20
2023-04-27T11:34:54.751Z,100553.59
2023-04-27T11:37:24.834Z,100550.77
2023-04-27T11:39:52.212Z,100550.73
2023-04-27T11:42:20.015Z,100545.86
2023-04-27T11:45:00.682Z,100546.69
2023-04-27T11:47:29.788Z,100547.98
2023-04-27T11:49:58.643Z,100548.77
2023-04-27T11:52:32.794Z,100555.75
2023-04-27T11:55:01.029Z,100553.02
2023-04-27T11:57:30.244Z,100560.99
2023-04-27T11:59:58.266Z,100553.89
2023-04-27T12:02:24.801Z,100550.45
2023-04-27T12:04:51.908Z,100551.47
2023-04-27T12:07:19.484Z,100541.67
2023-04-27T12:09:46.082Z,100541.95
2023-04-27T12:12:13.215Z,100540.11
2023-04-27T12:14:40.043Z,100543.92
2023-04-27T12:17:06.639Z,100545.23
2023-04-27T12:19:33.300Z,100538.27
2023-04-27T12:21:59.883Z,100537.26
2023-04-27T12:24:26.342Z,100539.34
2023-04-27T12:26:52.877Z,100548.11
2023-04-27T12:29:19.514Z,100544.59
2023-04-27T12:31:46.269Z,100542.88
2023-04-27T12:34:13.110Z,100547.52
2023-04-27T12:36:39.861Z,100540.32
2023-04-27T12:39:17.893Z,100539.25
2023-04-27T12:41:45.471Z,100538.32
2023-04-27T12:44:13.336Z,100534.83
2023-04-27T12:46:41.240Z,100533.17
2023-04-27T12:49:08.558Z,100530.52
2023-04-27T12:51:35.598Z,100534.23
2023-04-27T12:54:06.136Z,100529.31
2023-04-27T12:56:33.479Z,100532.85
2023-04-27T12:58:59.951Z,100529.73
2023-04-27T13:01:27.141Z,100533.05
2023-04-27T13:03:55.150Z,100526.63
2023-04-27T13:06:22.127Z,100528.30
2023-04-27T13:08:49.761Z,100531.45
2023-04-27T13:11:16.985Z,100532.31
2023-04-27T13:13:44.546Z,100532.80
2023-04-27T13:16:11.914Z,100530.49
2023-04-27T13:18:39.352Z,100531.27
2023-04-27T13:21:05.898Z,100530.20
2023-04-27T13:23:32.693Z,100525.97
2023-04-27T13:25:59.176Z,100529.55
2023-04-27T13:28:25.743Z,100531.69
2023-04-27T13:30:52.251Z,100528.88
2023-04-27T13:33:23.385Z,100521.98
2023-04-27T13:35:50.808Z,100521.42
2023-04-27T13:38:17.465Z,100521.32
2023-04-27T13:40:44.078Z,100527.33
2023-04-27T13:43:10.552Z,100522.27
2023-04-27T13:45:37.202Z,100525.98
2023-04-27T13:48:03.821Z,100529.48
2023-04-27T13:50:30.368Z,100530.79
2023-04-27T13:52:56.881Z,100535.14
2023-04-27T13:55:23.537Z,100530.59
2023-04-27T13:57:49.998Z,100529.86
2023-04-27T14:00:16.916Z,100529.20
2023-04-27T14:02:43.540Z,100534.69
2023-04-27T14:05:10.210Z,100531.81
2023-04-27T14:07:36.904Z,100530.36
2023-04-27T14:10:04.557Z,100533.06
2023-04-27T14:12:31.991Z,100539.27
2023-04-27T14:14:59.176Z,100544.61
2023-04-27T14:17:25.682Z,100541.34
2023-04-27T14:19:52.251Z,100539.23
2023-04-27T14:22:18.773Z,100535.33
2023-04-27T14:24:45.291Z,100542.13
2023-04-27T14:27:11.767Z,100539.02
2023-04-27T14:29:38.347Z,100538.03
2023-04-27T14:32:05.065Z,100541.55
2023-04-27T14:34:31.658Z,100543.80
2023-04-27T14:36:58.166Z,100550.38
2023-04-27T14:39:24.622Z,100552.05
2023-04-27T14:41:51.095Z,100550.31
2023-04-27T14:44:17.568Z,100551.09
2023-04-27T14:46:44.130Z,100552.52
2023-04-27T14:49:10.886Z,100546.59
2023-04-27T14:51:37.371Z,100549.38
2023-04-27T14:54:03.937Z,100546.87
2023-04-27T14:56:30.615Z,100547.44
2023-04-27T14:58:57.224Z,100548.58
2023-04-27T15:01:23.739Z,100549.60
2023-04-27T15:03:50.386Z,100548.29
2023-04-27T15:06:16.945Z,100551.34
2023-04-27T15:08:43.675Z,100553.95
2023-04-27T15:11:10.202Z,100553.88
2023-04-27T15:13:36.697Z,100550.81
2023-04-27T15:16:03.300Z,100550.89
2023-04-27T15:18:29.809Z,100546.48
2023-04-27T15:20:58.084Z,100546.25
2023-04-27T15:23:26.227Z,100540.38
2023-04-27T15:25:57.294Z,100542.55
2023-04-27T15:28:23.990Z,100544.84
2023-04-27T15:30:50.615Z,100542.17
2023-04-27T15:33:17.625Z,100552.34
2023-04-27T15:35:44.311Z,100548.78
2023-04-27T15:38:12.671Z,100542.47
2023-04-27T15:40:39.829Z,100544.41
2023-04-27T15:43:06.666Z,100545.70
2023-04-27T15:45:33.605Z,100548.11
2023-04-27T15:48:00.180Z,100551.90
2023-04-27T15:50:26.694Z,100551.05
2023-04-27T15:52:53.445Z,100555.02
2023-04-27T15:55:19.947Z,100552.95
2023-04-27T15:57:46.447Z,100549.52
2023-04-27T16:00:13.619Z,100553.19
2023-04-27T16:02:40.612Z,100547.12
2023-04-27T16:05:08.499Z,100552.24
2023-04-27T16:07:36.186Z,100553.78
2023-04-27T16:10:03.904Z,100546.93
2023-04-27T16:12:30.513Z,100555.14
2023-04-27T16:14:57.242Z,100553.29
2023-04-27T16:17:24.871Z,100556.56
2023-04-27T16:19:51.395Z,100556.04
2023-04-27T16:22:17.878Z,100563.27
2023-04-27T16:24:44.527Z,100564.34
2023-04-27T16:27:11.057Z,100561.17
2023-04-27T16:29:37.530Z,100566.08
2023-04-27T16:32:04.131Z,100568.92
2023-04-27T16:34:30.641Z,100571.85
2023-04-27T16:36:57.144Z,100571.03
2023-04-27T16:39:23.602Z,100574.17
2023-04-27T16:41:50.132Z,100578.35
2023-04-27T16:44:16.655Z,100577.07
2023-04-27T16:46:43.345Z,100580.85
2023-04-27T16:49:10.238Z,100586.41
2023-04-27T16:51:36.721Z,100581.41
2023-04-27T16:54:03.273Z,100580.09
2023-04-27T16:56:32.092Z,100583.87
2023-04-27T16:58:58.878Z,100584.30
2023-04-27T17:01:25.628Z,100589.67
2023-04-27T17:03:52.256Z,100594.64
2023-04-27T17:06:18.938Z,100594.15
2023-04-27T17:08:45.446Z,100593.16
2023-04-27T17:11:12.158Z,100594.94
2023-04-27T17:13:38.674Z,100594.97
2023-04-27T17:16:05.532Z,100598.70
2023-04-27T17:18:32.171Z,100601.03
2023-04-27T17:20:58.678Z,100603.52
2023-04-27T17:23:25.290Z,100602.32
2023-04-27T17:25:51.737Z,100597.91
2023-04-27T17:28:18.221Z,100604.95
2023-04-27T17:30:44.739Z,100606.76
2023-04-27T17:33:11.341Z,100604.51
2023-04-27T17:35:37.890Z,100613.50
2023-04-27T17:38:04.407Z,100617.05
2023-04-27T17:40:30.941Z,100620.74
2023-04-27T17:42:57.479Z,100623.05
2023-04-27T17:45:24.024Z,100624.15
2023-04-27T17:47:50.512Z,100625.08
2023-04-27T17:50:17.318Z,100622.64
2023-04-27T17:52:43.776Z,100629.70
2023-04-27T17:55:10.240Z,100629.02
2023-04-27T17:57:36.705Z,100632.73
2023-04-27T18:00:03.433Z,100635.03
2023-04-27T18:02:30.021Z,100638.06
2023-04-27T18:04:56.615Z,100641.23
2023-04-27T18:07:23.421Z,100644.78
2023-04-27T18:09:49.926Z,100645.32
2023-04-27T18:12:16.433Z,100647.44
2023-04-27T18:14:42.923Z,100646.76
2023-04-27T18:17:09.399Z,100649.58
2023-04-27T18:19:35.848Z,100649.39
2023-04-27T18:22:02.356Z,100652.55
2023-04-27T18:24:28.890Z,100656.25
2023-04-27T18:26:55.352Z,100653.98
2023-04-27T18:29:21.877Z,100655.04
2023-04-27T18:31:48.402Z,100660.98
2023-04-27T18:34:14.880Z,100665.20
2023-04-27T18:36:42.383Z,100670.82
2023-04-27T18:39:08.874Z,100676.60
2023-04-27T18:41:35.403Z,100672.91
2023-04-27T18:44:05.766Z,100673.95
2023-04-27T18:46:32.975Z,100677.97
2023-04-27T18:49:01.045Z,100680.92
2023-04-27T18:51:27.899Z,100682.30
2023-04-27T18:53:57.528Z,100690.01
2023-04-27T18:56:24.214Z,100694.89
2023-04-27T18:58:50.738Z,100697.13
2023-04-27T19:01:22.142Z,100696.75
2023-04-27T19:03:48.933Z,100698.63
2023-04-27T19:06:15.887Z,100691.06
2023-04-27T19:08:43.695Z,100698.04
2023-04-27T19:11:11.331Z,100700.46
2023-04-27T19:13:37.952Z,100706.00
2023-04-27T19:16:04.612Z,100709.64
2023-04-27T19:18:31.176Z,100710.13
2023-04-27T19:20:57.690Z,100708.33
2023-04-27T19:23:24.197Z,100710.39
2023-04-27T19:25:51.849Z,100709.82
2023-04-27T19:28:21.624Z,100718.17
2023-04-27T19:30:48.998Z,100715.33
2023-04-27T19:33:16.564Z,100715.63
2023-04-27T19:35:44.078Z,100714.36
2023-04-27T19:38:10.775Z,100713.61
2023-04-27T19:40:37.259Z,100719.88
2023-04-27T19:43:04.026Z,100723.30
2023-04-27T19:45:30.615Z,100723.95
2023-04-27T19:47:57.182Z,100722.65
2023-04-27T19:50:23.719Z,100720.31
2023-04-27T19:52:50.731Z,100716.92
2023-04-27T19:55:17.371Z,100716.67
2023-04-27T19:57:43.832Z,100718.34
2023-04-27T20:00:10.848Z,100718.27
2023-04-27T20:02:37.599Z,100720.47
2023-04-27T20:05:05.235Z,100719.73
2023-04-27T20:07:32.058Z,100722.11
2023-04-27T20:09:58.518Z,100722.07
2023-04-27T20:12:44.059Z,100722.70
2023-04-27T20:15:11.475Z,100722.13
2023-04-27T20:17:38.016Z,100721.36
2023-04-27T20:20:04.913Z,100722.35
2023-04-27T20:22:31.460Z,100721.77
2023-04-27T20:24:58.855Z,100721.02
2023-04-27T20:27:25.383Z,100728.09
2023-04-27T20:29:51.872Z,100724.72
2023-04-27T20:32:18.435Z,100727.45
2023-04-27T20:34:44.910Z,100725.95
2023-04-27T20:37:11.369Z,100726.92
2023-04-27T20:39:37.873Z,100728.27
2023-04-27T20:42:04.474Z,100729.24
2023-04-27T20:44:30.987Z,100729.19
2023-04-27T20:46:57.545Z,100730.33
2023-04-27T20:49:34.416Z,100726.91
2023-04-27T20:52:01.759Z,100730.83
2023-04-27T20:54:28.434Z,100734.05
2023-04-27T20:56:54.973Z,100735.53
2023-04-27T20:59:21.516Z,100732.30
2023-04-27T21:01:47.986Z,100733.11
2023-04-27T21:04:14.815Z,100734.95
2023-04-27T21:06:41.515Z,100732.39
2023-04-27T21:09:08.053Z,100733.51
2023-04-27T21:11:34.504Z,100737.08
2023-04-27T21:14:00.994Z,100739.44
2023-04-27T21:16:27.524Z,100740.42
2023-04-27T21:18:54.533Z,100741.42
2023-04-27T21:21:20.995Z,100742.59
2023-04-27T21:23:49.871Z,100742.84
2023-04-27T21:26:20.955Z,100748.67
2023-04-27T21:28:47.437Z,100755.27
2023-04-27T21:31:14.028Z,100755.02
2023-04-27T21:33:40.564Z,100759.33
2023-04-27T21:36:07.180Z,100755.77
2023-04-27T21:38:33.648Z,100756.05
2023-04-27T21:41:00.177Z,100761.02
2023-04-27T21:43:26.674Z,100762.67
2023-04-27T21:45:53.208Z,100760.00
2023-04-27T21:48:19.714Z,100764.77
2023-04-27T21:50:46.205Z,100770.60
2023-04-27T21:53:12.663Z,100769.82
2023-04-27T21:55:39.161Z,100774.10
2023-04-27T21:58:05.649Z,100775.95
2023-04-27T22:00:32.167Z,100777.62
2023-04-27T22:02:59.098Z,100783.29
2023-04-27T22:05:25.701Z,100783.41
2023-04-27T22:07:52.212Z,100786.30
2023-04-27T22:10:18.750Z,100788.64
2023-04-27T22:12:45.245Z,100790.89
2023-04-27T22:15:11.716Z,100790.27
2023-04-27T22:17:38.280Z,100786.84
2023-04-27T22:20:06.139Z,100784.84
2023-04-27T22:22:32.644Z,100780.90
2023-04-27T22:24:59.174Z,100786.70
2023-04-27T22:27:29.984Z,100789.20
2023-04-27T22:30:01.978Z,100786.52
2023-04-27T22:32:28.861Z,100792.02
2023-04-27T22:34:55.449Z,100791.94
2023-04-27T22:37:21.962Z,100787.20
2023-04-27T22:39:48.682Z,100793.08
2023-04-27T22:42:15.229Z,100796.67
2023-04-27T22:44:41.838Z,100797.98
2023-04-27T22:47:08.545Z,100800.53
2023-04-27T22:49:35.075Z,100802.19
2023-04-27T22:52:01.548Z,100807.52
2023-04-27T22:54:28.170Z,100804.67
2023-04-27T22:56:54.827Z,100803.31
2023-04-27T22:59:21.365Z,100805.16
2023-04-27T23:01:48.100Z,100808.23
2023-04-27T23:04:14.910Z,100809.90
2023-04-27T23:06:41.645Z,100810.81
2023-04-27T23:09:08.384Z,100810.36
2023-04-27T23:11:34.901Z,100810.97
2023-04-27T23:14:01.360Z,100811.39
2023-04-27T23:16:27.884Z,100806.95
2023-04-27T23:18:54.471Z,100805.70
2023-04-27T23:21:20.942Z,100806.16
2023-04-27T23:23:47.538Z,100805.09
2023-04-27T23:26:14.795Z,100805.08
2023-04-27T23:28:41.471Z,100807.76
2023-04-27T23:31:08.453Z,100812.00
2023-04-27T23:33:35.401Z,100811.59
2023-04-27T23:36:02.301Z,100812.90
2023-04-27T23:38:28.799Z,100811.66
2023-04-27T23:40:55.333Z,100813.59
2023-04-27T23:43:21.796Z,100814.96
2023-04-27T23:45:52.378Z,100816.37
2023-04-27T23:48:19.635Z,100824.20
2023-04-27T23:50:46.184Z,100821.77
2023-04-27T23:53:12.743Z,100821.95
2023-04-27T23:55:39.225Z,100820.74
2023-04-27T23:58:05.716Z,100820.73
